createdAt,value
2022-11-24T00:01:56.623Z,8.00
2022-11-24T00:04:44.793Z,8.00
2022-11-24T00:07:31.766Z,8.00
2022-11-24T00:10:18.886Z,8.00
2022-11-24T00:13:05.578Z,8.00
2022-11-24T00:15:52.460Z,8.00
2022-11-24T00:18:41.512Z,8.00
2022-11-24T00:21:32.178Z,8.00
2022-11-24T00:24:19.146Z,8.00
2022-11-24T00:27:06.138Z,8.00
2022-11-24T00:29:53.321Z,8.00
2022-11-24T00:32:40.347Z,8.00
2022-11-24T00:35:26.885Z,8.00
2022-11-24T00:38:14.989Z,8.00
2022-11-24T00:41:01.907Z,8.00
2022-11-24T00:43:48.211Z,8.00
2022-11-24T00:46:35.618Z,8.00
2022-11-24T00:49:22.212Z,8.00
2022-11-24T00:52:21.482Z,8.00
2022-11-24T00:55:09.959Z,8.00
2022-11-24T00:57:57.004Z,8.00
2022-11-24T01:00:43.837Z,8.00
2022-11-24T01:03:30.953Z,8.00
2022-11-24T01:06:24.000Z,8.00
2022-11-24T01:09:11.954Z,8.00
2022-11-24T01:12:02.767Z,8.00
2022-11-24T01:14:49.337Z,8.00
2022-11-24T01:17:36.134Z,8.00
2022-11-24T01:20:23.067Z,8.00
2022-11-24T01:23:09.512Z,8.00
2022-11-24T01:25:56.059Z,8.00
2022-11-24T01:28:47.364Z,8.00
2022-11-24T01:31:34.191Z,8.00
2022-11-24T01:34:20.977Z,8.00
2022-11-24T01:37:07.786Z,8.00
2022-11-24T01:39:54.914Z,8.00
2022-11-24T01:42:48.827Z,8.00
2022-11-24T01:45:41.521Z,8.00
2022-11-24T01:48:35.656Z,8.00
2022-11-24T01:51:27.775Z,8.00
2022-11-24T01:54:21.886Z,8.00
2022-11-24T01:57:19.088Z,8.00
2022-11-24T02:00:10.614Z,8.00
2022-11-24T02:02:59.925Z,8.00
2022-11-24T02:05:55.005Z,8.00
2022-11-24T02:08:50.295Z,8.00
2022-11-24T02:11:40.678Z,7.90
2022-11-24T02:14:28.836Z,7.90
2022-11-24T02:17:15.437Z,7.90
2022-11-24T02:20:08.843Z,7.90
2022-11-24T02:23:04.105Z,7.90
2022-11-24T02:26:05.890Z,7.90
2022-11-24T02:28:54.580Z,7.90
2022-11-24T02:31:47.523Z,7.90
2022-11-24T02:34:34.924Z,7.90
2022-11-24T02:37:22.036Z,7.90
2022-11-24T02:40:10.931Z,7.90
2022-11-24T02:43:05.281Z,7.90
2022-11-24T02:45:53.559Z,7.90
2022-11-24T02:48:40.548Z,7.90
2022-11-24T02:51:28.287Z,7.90
2022-11-24T02:54:14.946Z,7.90
2022-11-24T02:57:02.061Z,7.90
2022-11-24T02:59:48.645Z,7.90
2022-11-24T03:02:36.935Z,7.90
2022-11-24T03:05:23.442Z,7.90
2022-11-24T03:08:10.287Z,7.90
2022-11-24T03:10:57.179Z,7.90
2022-11-24T03:13:43.855Z,7.90
2022-11-24T03:16:30.624Z,7.90
2022-11-24T03:19:18.782Z,8.00
2022-11-24T03:22:05.540Z,8.00
2022-11-24T03:24:53.442Z,8.00
2022-11-24T03:27:40.674Z,8.00
2022-11-24T03:30:27.485Z,8.00
2022-11-24T03:33:14.358Z,8.00
2022-11-24T03:36:03.144Z,8.00
2022-11-24T03:38:49.806Z,8.00
2022-11-24T03:41:36.699Z,8.00
2022-11-24T03:44:23.991Z,8.00
2022-11-24T03:47:13.987Z,8.10
2022-11-24T03:50:03.822Z,8.10
2022-11-24T03:52:51.998Z,8.10
2022-11-24T03:55:39.481Z,8.10
2022-11-24T03:58:26.833Z,8.10
2022-11-24T04:01:14.039Z,8.10
2022-11-24T04:04:00.975Z,8.10
2022-11-24T04:06:47.768Z,8.10
2022-11-24T04:09:38.933Z,8.10
2022-11-24T04:12:43.719Z,8.10
2022-11-24T04:15:30.464Z,8.10
2022-11-24T04:18:17.438Z,8.10
2022-11-24T04:21:11.026Z,8.10
2022-11-24T04:23:57.907Z,8.20
2022-11-24T04:26:49.645Z,8.20
2022-11-24T04:29:37.222Z,8.20
2022-11-24T04:32:24.100Z,8.20
2022-11-24T04:35:11.529Z,8.20
2022-11-24T04:38:02.031Z,8.20
2022-11-24T04:40:49.931Z,8.20
2022-11-24T04:43:40.825Z,8.20
2022-11-24T04:46:27.701Z,8.20
2022-11-24T04:49:18.989Z,8.20
2022-11-24T04:52:06.131Z,8.30
2022-11-24T04:54:53.602Z,8.30
2022-11-24T04:57:40.369Z,8.30
2022-11-24T05:00:28.506Z,8.20
2022-11-24T05:03:15.476Z,8.30
2022-11-24T05:06:02.242Z,8.30
2022-11-24T05:08:49.692Z,8.30
2022-11-24T05:11:36.539Z,8.30
2022-11-24T05:14:23.720Z,8.30
2022-11-24T05:17:11.578Z,8.30
2022-11-24T05:19:58.779Z,8.30
2022-11-24T05:22:45.221Z,8.40
2022-11-24T05:25:32.900Z,8.40
2022-11-24T05:28:29.699Z,8.40
2022-11-24T05:31:16.229Z,8.40
2022-11-24T05:34:04.576Z,8.50
2022-11-24T05:36:54.300Z,8.50
2022-11-24T05:39:40.890Z,8.50
2022-11-24T05:42:47.256Z,8.50
2022-11-24T05:45:35.244Z,8.50
2022-11-24T05:48:22.024Z,8.50
2022-11-24T05:51:10.342Z,8.60
2022-11-24T05:56:32.591Z,8.60
2022-11-24T05:59:25.227Z,8.60
2022-11-24T06:02:19.160Z,8.60
2022-11-24T06:09:07.837Z,8.60
2022-11-24T06:11:54.768Z,8.60
2022-11-24T06:14:42.455Z,8.60
2022-11-24T06:17:29.751Z,8.60
2022-11-24T06:20:17.060Z,8.60
2022-11-24T06:23:03.634Z,8.60
2022-11-24T06:25:52.228Z,8.60
2022-11-24T06:28:39.120Z,8.60
2022-11-24T06:31:26.018Z,8.60
2022-11-24T06:34:14.456Z,8.60
2022-11-24T06:37:01.476Z,8.60
2022-11-24T06:39:49.521Z,8.60
2022-11-24T06:42:38.265Z,8.60
2022-11-24T06:45:25.328Z,8.60
2022-11-24T06:48:12.204Z,8.60
2022-11-24T06:51:01.094Z,8.60
2022-11-24T06:53:48.186Z,8.60
2022-11-24T06:56:35.579Z,8.60
2022-11-24T06:59:23.973Z,8.60
2022-11-24T07:02:11.557Z,8.60
2022-11-24T07:04:58.073Z,8.60
2022-11-24T07:07:45.012Z,8.60
2022-11-24T07:10:34.560Z,8.60
2022-11-24T07:13:21.282Z,8.60
2022-11-24T07:16:15.726Z,8.60
2022-11-24T07:19:03.479Z,8.60
2022-11-24T07:21:50.169Z,8.60
2022-11-24T07:24:37.269Z,8.60
2022-11-24T07:27:24.369Z,8.60
2022-11-24T07:30:11.922Z,8.60
2022-11-24T07:33:02.672Z,8.60
2022-11-24T07:35:49.794Z,8.60
2022-11-24T07:38:37.386Z,8.70
2022-11-24T07:41:24.076Z,8.70
2022-11-24T07:44:12.059Z,8.70
2022-11-24T07:46:58.560Z,8.70
2022-11-24T07:49:46.813Z,8.80
2022-11-24T07:52:33.505Z,8.80
2022-11-24T07:55:20.332Z,8.80
2022-11-24T07:58:07.106Z,8.80
2022-11-24T08:00:54.275Z,8.90
2022-11-24T08:03:41.677Z,8.90
2022-11-24T08:06:38.608Z,8.90
2022-11-24T08:09:28.659Z,8.90
2022-11-24T08:12:17.390Z,8.90
2022-11-24T08:15:09.512Z,9.00
2022-11-24T08:17:57.747Z,9.00
2022-11-24T08:20:44.498Z,9.00
2022-11-24T08:23:33.549Z,9.00
2022-11-24T08:26:20.495Z,9.10
2022-11-24T08:29:07.353Z,9.10
2022-11-24T08:31:57.153Z,9.10
2022-11-24T08:34:43.628Z,9.10
2022-11-24T08:37:30.655Z,9.10
2022-11-24T08:40:19.189Z,9.10
2022-11-24T08:43:06.071Z,9.20
2022-11-24T08:45:53.191Z,9.20
2022-11-24T08:48:39.802Z,9.20
2022-11-24T08:51:28.248Z,9.20
2022-11-24T08:54:15.374Z,9.20
2022-11-24T08:57:03.247Z,9.20
2022-11-24T08:59:49.872Z,9.20
2022-11-24T09:02:36.706Z,9.20
2022-11-24T09:05:50.766Z,9.20
2022-11-24T09:08:31.376Z,9.20
2022-11-24T09:11:19.155Z,9.20
2022-11-24T09:14:07.392Z,9.30
2022-11-24T09:16:55.276Z,9.30
2022-11-24T09:19:42.095Z,9.30
2022-11-24T09:22:28.505Z,9.30
2022-11-24T09:25:15.573Z,9.30
2022-11-24T09:28:02.462Z,9.30
2022-11-24T09:30:50.722Z,9.30
2022-11-24T09:33:38.657Z,9.40
2022-11-24T09:36:26.148Z,9.40
2022-11-24T09:39:13.141Z,9.40
2022-11-24T09:42:15.570Z,9.40
2022-11-24T09:46:03.466Z,9.40
2022-11-24T09:48:49.700Z,9.40
2022-11-24T09:51:38.798Z,9.40
2022-11-24T09:54:30.846Z,9.40
2022-11-24T09:57:19.129Z,9.40
2022-11-24T10:00:14.531Z,9.40
2022-11-24T10:03:01.572Z,9.40
2022-11-24T10:05:52.400Z,9.40
2022-11-24T10:09:04.749Z,9.40
2022-11-24T10:12:04.248Z,9.40
2022-11-24T10:15:21.677Z,9.40
2022-11-24T10:18:38.489Z,9.40
2022-11-24T10:21:52.622Z,9.40
2022-11-24T10:25:09.217Z,9.40
2022-11-24T10:28:00.918Z,9.40
2022-11-24T10:30:47.773Z,9.70
2022-11-24T10:33:34.662Z,9.60
2022-11-24T10:36:33.130Z,9.50
2022-11-24T10:39:29.726Z,9.60
2022-11-24T10:42:21.487Z,9.50
2022-11-24T10:45:14.921Z,9.50
2022-11-24T10:48:01.937Z,9.50
2022-11-24T10:50:49.208Z,9.60
2022-11-24T10:53:43.965Z,9.60
2022-11-24T10:56:43.167Z,9.60
2022-11-24T10:59:38.541Z,9.60
2022-11-24T11:02:41.522Z,9.60
2022-11-24T11:05:45.205Z,9.70
2022-11-24T11:08:35.219Z,9.70
2022-11-24T11:11:30.345Z,9.70
2022-11-24T11:14:47.907Z,9.70
2022-11-24T11:17:38.673Z,9.70
2022-11-24T11:20:31.337Z,9.70
2022-11-24T11:23:26.663Z,9.80
2022-11-24T11:26:33.087Z,9.80
2022-11-24T11:35:41.037Z,9.90
2022-11-24T11:38:38.929Z,9.90
2022-11-24T11:41:33.551Z,9.90
2022-11-24T11:44:35.386Z,9.90
2022-11-24T11:47:31.086Z,10.00
2022-11-24T11:50:59.136Z,10.00
2022-11-24T11:53:57.786Z,10.00
2022-11-24T11:56:49.929Z,10.00
2022-11-24T12:00:00.345Z,10.00
2022-11-24T12:03:26.275Z,10.10
2022-11-24T12:06:35.443Z,10.10
2022-11-24T12:09:41.533Z,10.10
2022-11-24T12:13:01.117Z,10.10
2022-11-24T12:22:05.736Z,10.10
2022-11-24T12:53:23.112Z,10.50
2022-11-24T12:56:15.750Z,10.60
2022-11-24T12:59:21.856Z,10.60
2022-11-24T13:02:26.582Z,10.60
2022-11-24T13:05:26.257Z,10.60
2022-11-24T13:08:15.089Z,10.60
2022-11-24T13:11:43.416Z,10.60
2022-11-24T13:14:33.740Z,10.60
2022-11-24T13:17:37.123Z,10.70
2022-11-24T13:20:36.527Z,10.70
2022-11-24T13:23:28.776Z,10.70
2022-11-24T13:26:30.462Z,10.70
2022-11-24T13:29:36.472Z,10.70
2022-11-24T13:33:02.187Z,10.70
2022-11-24T13:36:34.856Z,10.70
2022-11-24T13:39:23.137Z,10.80
2022-11-24T13:42:10.487Z,10.80
2022-11-24T13:45:53.744Z,10.80
2022-11-24T13:49:01.002Z,10.80
2022-11-24T13:51:47.764Z,10.70
2022-11-24T13:54:35.104Z,10.70
2022-11-24T13:57:36.133Z,10.70
2022-11-24T14:00:25.934Z,10.70
2022-11-24T14:03:27.815Z,10.80
2022-11-24T14:06:26.947Z,10.70
2022-11-24T14:09:29.384Z,10.80
2022-11-24T14:12:20.105Z,10.80
2022-11-24T14:15:25.056Z,10.80
2022-11-24T14:18:23.189Z,10.70
2022-11-24T14:21:28.697Z,10.70
2022-11-24T14:24:26.226Z,10.70
2022-11-24T14:27:17.711Z,10.70
2022-11-24T14:30:20.138Z,10.70
2022-11-24T14:33:13.462Z,10.70
2022-11-24T14:36:01.442Z,10.60
2022-11-24T14:38:50.513Z,10.60
2022-11-24T14:41:37.421Z,10.60
2022-11-24T14:44:27.610Z,10.60
2022-11-24T14:47:28.944Z,10.60
2022-11-24T14:50:19.894Z,10.60
2022-11-24T14:53:16.323Z,10.50
2022-11-24T14:56:22.301Z,10.60
2022-11-24T14:59:23.973Z,10.50
2022-11-24T15:02:43.962Z,10.50
2022-11-24T15:05:54.481Z,10.50
2022-11-24T15:08:47.599Z,10.50
2022-11-24T15:11:35.521Z,10.50
2022-11-24T15:14:36.817Z,10.50
2022-11-24T15:17:27.361Z,10.40
2022-11-24T15:20:25.990Z,10.40
2022-11-24T15:23:31.941Z,10.50
2022-11-24T15:26:36.713Z,10.40
2022-11-24T15:29:26.752Z,10.40
2022-11-24T15:32:16.320Z,10.40
2022-11-24T15:35:03.093Z,10.30
2022-11-24T15:37:50.563Z,10.30
2022-11-24T15:40:38.491Z,10.20
2022-11-24T15:43:32.397Z,10.10
2022-11-24T15:46:19.260Z,10.10
2022-11-24T15:49:07.052Z,10.00
2022-11-24T15:51:53.639Z,10.00
2022-11-24T15:54:40.363Z,9.90
2022-11-24T15:57:27.262Z,9.90
2022-11-24T16:00:19.855Z,9.80
2022-11-24T16:03:38.459Z,9.80
2022-11-24T16:06:23.608Z,9.80
2022-11-24T16:09:16.722Z,9.70
2022-11-24T16:12:04.078Z,9.70
2022-11-24T16:14:50.926Z,9.70
2022-11-24T16:17:39.009Z,9.60
2022-11-24T16:20:25.915Z,9.60
2022-11-24T16:23:12.833Z,9.50
2022-11-24T16:25:59.511Z,9.50
2022-11-24T16:28:46.266Z,9.40
2022-11-24T16:31:33.041Z,9.40
2022-11-24T16:34:21.444Z,9.30
2022-11-24T16:37:08.569Z,9.30
2022-11-24T16:39:55.544Z,9.20
2022-11-24T16:42:42.262Z,9.20
2022-11-24T16:45:29.036Z,9.10
2022-11-24T16:48:15.695Z,9.10
2022-11-24T16:51:07.357Z,9.00
2022-11-24T16:53:59.898Z,9.00
2022-11-24T16:56:46.947Z,8.90
2022-11-24T16:59:33.588Z,8.90
2022-11-24T17:02:20.339Z,8.90
2022-11-24T17:05:07.922Z,8.80
2022-11-24T17:07:55.886Z,8.80
2022-11-24T17:10:42.613Z,8.80
2022-11-24T17:13:29.270Z,8.80
2022-11-24T17:16:19.214Z,8.80
2022-11-24T17:19:06.335Z,8.70
2022-11-24T17:21:54.424Z,8.70
2022-11-24T17:24:42.747Z,8.70
2022-11-24T17:27:29.492Z,8.60
2022-11-24T17:30:17.046Z,8.60
2022-11-24T17:33:03.962Z,8.60
2022-11-24T17:35:50.903Z,8.50
2022-11-24T17:38:37.771Z,8.50
2022-11-24T17:41:25.710Z,8.50
2022-11-24T17:44:12.728Z,8.50
2022-11-24T17:47:00.845Z,8.50
2022-11-24T17:49:52.852Z,8.40
2022-11-24T17:52:39.568Z,8.40
2022-11-24T17:55:26.385Z,8.40
2022-11-24T17:58:14.498Z,8.40
2022-11-24T18:01:02.655Z,8.40
2022-11-24T18:03:53.414Z,8.30
2022-11-24T18:06:40.448Z,8.30
2022-11-24T18:09:27.108Z,8.30
2022-11-24T18:12:14.138Z,8.30
2022-11-24T18:15:01.981Z,8.20
2022-11-24T18:17:48.678Z,8.20
2022-11-24T18:20:35.425Z,8.20
2022-11-24T18:23:21.966Z,8.20
2022-11-24T18:26:10.756Z,8.20
2022-11-24T18:28:57.633Z,8.10
2022-11-24T18:31:45.988Z,8.10
2022-11-24T18:34:32.666Z,8.10
2022-11-24T18:37:19.353Z,8.00
2022-11-24T18:40:08.039Z,8.00
2022-11-24T18:42:54.844Z,8.00
2022-11-24T18:45:42.358Z,8.00
2022-11-24T18:48:31.566Z,8.00
2022-11-24T18:51:19.171Z,8.00
2022-11-24T18:54:06.488Z,8.00
2022-11-24T18:56:53.425Z,8.00
2022-11-24T18:59:40.388Z,8.00
2022-11-24T19:02:27.344Z,8.00
2022-11-24T19:05:15.609Z,8.00
2022-11-24T19:08:02.306Z,8.00
2022-11-24T19:10:49.921Z,8.10
2022-11-24T19:13:37.735Z,8.10
2022-11-24T19:16:25.508Z,8.10
2022-11-24T19:19:13.782Z,8.10
2022-11-24T19:22:02.623Z,8.10
2022-11-24T19:24:50.764Z,8.10
2022-11-24T19:27:37.641Z,8.10
2022-11-24T19:30:25.378Z,8.10
2022-11-24T19:33:12.025Z,8.10
2022-11-24T19:36:03.452Z,8.10
2022-11-24T19:38:54.210Z,8.10
2022-11-24T19:41:41.784Z,8.10
2022-11-24T19:44:28.835Z,8.00
2022-11-24T19:47:15.743Z,8.00
2022-11-24T19:50:07.327Z,8.00
2022-11-24T19:52:57.564Z,8.00
2022-11-24T19:55:45.699Z,8.00
2022-11-24T19:58:33.037Z,8.00
2022-11-24T20:01:22.434Z,8.00
2022-11-24T20:04:15.403Z,7.90
2022-11-24T20:07:02.126Z,7.90
2022-11-24T20:09:48.807Z,7.80
2022-11-24T20:12:36.993Z,7.80
2022-11-24T20:15:23.637Z,7.80
2022-11-24T20:18:16.001Z,7.70
2022-11-24T20:21:04.738Z,7.70
2022-11-24T20:23:57.374Z,7.70
2022-11-24T20:26:47.747Z,7.70
2022-11-24T20:29:36.078Z,7.70
2022-11-24T20:32:23.304Z,7.70
2022-11-24T20:35:16.604Z,7.70
2022-11-24T20:38:04.908Z,7.60
2022-11-24T20:40:52.088Z,7.60
2022-11-24T20:43:40.028Z,7.60
2022-11-24T20:46:33.524Z,7.60
2022-11-24T20:49:21.906Z,7.60
2022-11-24T20:52:08.694Z,7.60
2022-11-24T20:54:55.562Z,7.60
2022-11-24T20:57:42.277Z,7.50
2022-11-24T21:00:29.230Z,7.50
2022-11-24T21:03:17.191Z,7.50
2022-11-24T21:06:04.658Z,7.50
2022-11-24T21:08:51.984Z,7.50
2022-11-24T21:11:40.725Z,7.40
2022-11-24T21:14:30.143Z,7.40
2022-11-24T21:17:20.507Z,7.40
2022-11-24T21:20:11.481Z,7.40
2022-11-24T21:22:58.175Z,7.40
2022-11-24T21:25:45.375Z,7.40
2022-11-24T21:28:33.191Z,7.40
2022-11-24T21:31:22.525Z,7.40
2022-11-24T21:34:10.797Z,7.40
2022-11-24T21:36:58.693Z,7.30
2022-11-24T21:39:45.801Z,7.30
2022-11-24T21:42:34.773Z,7.30
2022-11-24T21:45:21.546Z,7.30
2022-11-24T21:48:08.517Z,7.20
2022-11-24T21:50:55.315Z,7.20
2022-11-24T21:53:45.260Z,7.20
2022-11-24T21:56:32.436Z,7.20
2022-11-24T21:59:21.691Z,7.20
2022-11-24T22:02:12.893Z,7.20
2022-11-24T22:04:59.743Z,7.20
2022-11-24T22:07:46.707Z,7.20
2022-11-24T22:10:34.875Z,7.20
2022-11-24T22:13:22.541Z,7.20
2022-11-24T22:16:12.586Z,7.10
2022-11-24T22:19:01.756Z,7.10
2022-11-24T22:21:48.489Z,7.10
2022-11-24T22:24:35.854Z,7.10
2022-11-24T22:27:23.636Z,7.00
2022-11-24T22:30:11.892Z,7.00
2022-11-24T22:32:58.728Z,7.00
2022-11-24T22:35:45.696Z,7.00
2022-11-24T22:38:33.999Z,6.90
2022-11-24T22:41:21.225Z,6.90
2022-11-24T22:44:09.702Z,6.90
2022-11-24T22:46:57.800Z,6.90
2022-11-24T22:49:44.707Z,6.80
2022-11-24T22:52:33.745Z,6.80
2022-11-24T22:55:20.549Z,6.80
2022-11-24T22:58:07.321Z,6.80
2022-11-24T23:00:55.971Z,6.80
2022-11-24T23:03:42.793Z,6.80
2022-11-24T23:06:32.459Z,6.80
2022-11-24T23:09:19.465Z,6.80
2022-11-24T23:12:07.056Z,6.70
2022-11-24T23:14:53.592Z,6.70
2022-11-24T23:17:42.033Z,6.70
2022-11-24T23:20:28.402Z,6.70
2022-11-24T23:23:15.504Z,6.70
2022-11-24T23:26:02.940Z,6.70
2022-11-24T23:28:50.166Z,6.70
2022-11-24T23:31:39.838Z,6.60
2022-11-24T23:34:28.180Z,6.70
2022-11-24T23:37:15.513Z,6.60
2022-11-24T23:40:02.247Z,6.60
2022-11-24T23:42:49.264Z,6.60
2022-11-24T23:45:36.064Z,6.60
2022-11-24T23:48:22.840Z,6.60
2022-11-24T23:51:17.528Z,6.60
2022-11-24T23:54:09.796Z,6.60
2022-11-24T23:56:56.334Z,6.60
2022-11-24T23:59:43.227Z,6.60
